sensor_id;sensor_type;location;lat;lon;timestamp;temperature;humidity
3866;DHT22;1948;53.250;10.412;2022-10-13T00:01:23;9.40;99.90
3866;DHT22;1948;53.250;10.412;2022-10-13T00:03:53;9.40;99.90
3866;DHT22;1948;53.250;10.412;2022-10-13T00:06:24;9.40;99.90
3866;DHT22;1948;53.250;10.412;2022-10-13T00:08:54;9.50;99.90
3866;DHT22;1948;53.250;10.412;2022-10-13T00:11:26;9.50;99.90
3866;DHT22;1948;53.250;10.412;2022-10-13T00:13:58;9.50;99.90
3866;DHT22;1948;53.250;10.412;2022-10-13T00:16:28;9.50;99.90
3866;DHT22;1948;53.250;10.412;2022-10-13T00:18:58;9.60;99.90
3866;DHT22;1948;53.250;10.412;2022-10-13T00:21:26;9.60;99.90
3866;DHT22;1948;53.250;10.412;2022-10-13T00:23:54;9.70;99.90
3866;DHT22;1948;53.250;10.412;2022-10-13T00:26:22;9.60;99.90
3866;DHT22;1948;53.250;10.412;2022-10-13T00:28:50;9.60;99.90
3866;DHT22;1948;53.250;10.412;2022-10-13T00:31:29;9.50;99.90
3866;DHT22;1948;53.250;10.412;2022-10-13T00:33:58;9.50;99.90
3866;DHT22;1948;53.250;10.412;2022-10-13T00:36:28;9.50;99.90
3866;DHT22;1948;53.250;10.412;2022-10-13T00:38:58;9.50;99.90
3866;DHT22;1948;53.250;10.412;2022-10-13T00:41:25;9.50;99.90
3866;DHT22;1948;53.250;10.412;2022-10-13T00:43:56;9.50;99.90
3866;DHT22;1948;53.250;10.412;2022-10-13T00:46:35;9.40;99.90
3866;DHT22;1948;53.250;10.412;2022-10-13T00:49:11;9.50;99.90
3866;DHT22;1948;53.250;10.412;2022-10-13T00:51:47;9.50;99.90
3866;DHT22;1948;53.250;10.412;2022-10-13T00:54:17;9.40;99.90
3866;DHT22;1948;53.250;10.412;2022-10-13T00:56:47;9.40;99.90
3866;DHT22;1948;53.250;10.412;2022-10-13T00:59:21;9.30;99.90
3866;DHT22;1948;53.250;10.412;2022-10-13T01:01:52;9.20;99.90
3866;DHT22;1948;53.250;10.412;2022-10-13T01:04:26;9.20;99.90
3866;DHT22;1948;53.250;10.412;2022-10-13T01:06:59;9.20;99.90
3866;DHT22;1948;53.250;10.412;2022-10-13T01:09:26;9.30;99.90
3866;DHT22;1948;53.250;10.412;2022-10-13T01:21:33;9.20;99.90
3866;DHT22;1948;53.250;10.412;2022-10-13T01:36:40;9.40;99.90
3866;DHT22;1948;53.250;10.412;2022-10-13T01:39:06;9.40;99.90
3866;DHT22;1948;53.250;10.412;2022-10-13T01:41:45;9.30;99.90
3866;DHT22;1948;53.250;10.412;2022-10-13T01:44:26;9.30;99.90
3866;DHT22;1948;53.250;10.412;2022-10-13T01:46:55;9.30;99.90
3866;DHT22;1948;53.250;10.412;2022-10-13T01:49:33;9.40;99.90
3866;DHT22;1948;53.250;10.412;2022-10-13T01:52:08;9.40;99.90
3866;DHT22;1948;53.250;10.412;2022-10-13T01:54:38;9.40;99.90
3866;DHT22;1948;53.250;10.412;2022-10-13T01:57:35;9.40;99.90
3866;DHT22;1948;53.250;10.412;2022-10-13T02:00:08;9.40;99.90
3866;DHT22;1948;53.250;10.412;2022-10-13T02:03:08;9.40;99.90
3866;DHT22;1948;53.250;10.412;2022-10-13T02:05:52;9.30;99.90
3866;DHT22;1948;53.250;10.412;2022-10-13T02:08:44;9.20;99.90
3866;DHT22;1948;53.250;10.412;2022-10-13T02:11:20;9.20;99.90
3866;DHT22;1948;53.250;10.412;2022-10-13T02:16:38;8.90;99.90
3866;DHT22;1948;53.250;10.412;2022-10-13T02:19:14;8.80;99.90
3866;DHT22;1948;53.250;10.412;2022-10-13T02:21:42;8.80;99.90
3866;DHT22;1948;53.250;10.412;2022-10-13T02:24:15;8.70;99.90
3866;DHT22;1948;53.250;10.412;2022-10-13T02:26:43;8.70;99.90
3866;DHT22;1948;53.250;10.412;2022-10-13T02:29:12;8.70;99.90
3866;DHT22;1948;53.250;10.412;2022-10-13T02:31:41;8.70;99.90
3866;DHT22;1948;53.250;10.412;2022-10-13T02:34:12;8.70;99.90
3866;DHT22;1948;53.250;10.412;2022-10-13T02:36:39;8.70;99.90
3866;DHT22;1948;53.250;10.412;2022-10-13T02:39:08;8.70;99.90
3866;DHT22;1948;53.250;10.412;2022-10-13T02:41:38;8.60;99.90
3866;DHT22;1948;53.250;10.412;2022-10-13T02:44:05;8.50;99.90
3866;DHT22;1948;53.250;10.412;2022-10-13T02:46:33;8.50;99.90
3866;DHT22;1948;53.250;10.412;2022-10-13T02:49:02;8.40;99.90
3866;DHT22;1948;53.250;10.412;2022-10-13T02:51:34;8.40;99.90
3866;DHT22;1948;53.250;10.412;2022-10-13T02:54:06;8.30;99.90
3866;DHT22;1948;53.250;10.412;2022-10-13T02:56:35;8.30;99.90
3866;DHT22;1948;53.250;10.412;2022-10-13T02:59:04;8.30;99.90
3866;DHT22;1948;53.250;10.412;2022-10-13T03:01:34;8.20;99.90
3866;DHT22;1948;53.250;10.412;2022-10-13T03:04:07;8.20;99.90
3866;DHT22;1948;53.250;10.412;2022-10-13T03:06:35;8.30;99.90
3866;DHT22;1948;53.250;10.412;2022-10-13T03:09:05;8.30;99.90
3866;DHT22;1948;53.250;10.412;2022-10-13T03:11:32;8.30;99.90
3866;DHT22;1948;53.250;10.412;2022-10-13T03:13:59;8.30;99.90
3866;DHT22;1948;53.250;10.412;2022-10-13T03:16:28;8.30;99.90
3866;DHT22;1948;53.250;10.412;2022-10-13T03:18:55;8.30;99.90
3866;DHT22;1948;53.250;10.412;2022-10-13T03:21:22;8.30;99.90
3866;DHT22;1948;53.250;10.412;2022-10-13T03:23:52;8.30;99.90
3866;DHT22;1948;53.250;10.412;2022-10-13T03:26:19;8.30;99.90
3866;DHT22;1948;53.250;10.412;2022-10-13T03:28:50;8.20;99.90
3866;DHT22;1948;53.250;10.412;2022-10-13T03:31:18;8.20;99.90
3866;DHT22;1948;53.250;10.412;2022-10-13T03:33:45;8.20;99.90
3866;DHT22;1948;53.250;10.412;2022-10-13T03:36:14;8.20;99.90
3866;DHT22;1948;53.250;10.412;2022-10-13T03:38:43;8.10;99.90
3866;DHT22;1948;53.250;10.412;2022-10-13T03:41:15;8.00;99.90
3866;DHT22;1948;53.250;10.412;2022-10-13T03:43:45;8.00;99.90
3866;DHT22;1948;53.250;10.412;2022-10-13T03:46:16;8.00;99.90
3866;DHT22;1948;53.250;10.412;2022-10-13T03:48:45;7.90;99.90
3866;DHT22;1948;53.250;10.412;2022-10-13T03:51:18;8.00;99.90
3866;DHT22;1948;53.250;10.412;2022-10-13T03:53:47;8.00;99.90
3866;DHT22;1948;53.250;10.412;2022-10-13T03:56:25;8.00;99.90
3866;DHT22;1948;53.250;10.412;2022-10-13T03:58:57;8.10;99.90
3866;DHT22;1948;53.250;10.412;2022-10-13T04:01:27;8.10;99.90
3866;DHT22;1948;53.250;10.412;2022-10-13T04:03:58;8.00;99.90
3866;DHT22;1948;53.250;10.412;2022-10-13T04:06:28;8.00;99.90
3866;DHT22;1948;53.250;10.412;2022-10-13T04:08:56;8.00;99.90
3866;DHT22;1948;53.250;10.412;2022-10-13T04:11:24;8.10;99.90
3866;DHT22;1948;53.250;10.412;2022-10-13T04:13:54;8.10;99.90
3866;DHT22;1948;53.250;10.412;2022-10-13T04:16:24;8.10;99.90
3866;DHT22;1948;53.250;10.412;2022-10-13T04:19:01;8.20;99.90
3866;DHT22;1948;53.250;10.412;2022-10-13T04:21:33;8.30;99.90
3866;DHT22;1948;53.250;10.412;2022-10-13T04:24:04;8.30;99.90
3866;DHT22;1948;53.250;10.412;2022-10-13T04:26:35;8.30;99.90
3866;DHT22;1948;53.250;10.412;2022-10-13T04:29:03;8.30;99.90
3866;DHT22;1948;53.250;10.412;2022-10-13T04:31:38;8.30;99.90
3866;DHT22;1948;53.250;10.412;2022-10-13T04:34:05;8.20;99.90
3866;DHT22;1948;53.250;10.412;2022-10-13T04:36:33;8.20;99.90
3866;DHT22;1948;53.250;10.412;2022-10-13T04:39:03;8.20;99.90
3866;DHT22;1948;53.250;10.412;2022-10-13T04:41:32;8.30;99.90
3866;DHT22;1948;53.250;10.412;2022-10-13T04:43:59;8.30;99.90
3866;DHT22;1948;53.250;10.412;2022-10-13T04:46:28;8.30;99.90
3866;DHT22;1948;53.250;10.412;2022-10-13T04:48:55;8.20;99.90
3866;DHT22;1948;53.250;10.412;2022-10-13T04:51:24;8.30;99.90
3866;DHT22;1948;53.250;10.412;2022-10-13T04:53:56;8.40;99.90
3866;DHT22;1948;53.250;10.412;2022-10-13T04:56:27;8.40;99.90
3866;DHT22;1948;53.250;10.412;2022-10-13T04:58:54;8.40;99.90
3866;DHT22;1948;53.250;10.412;2022-10-13T05:01:23;8.50;99.90
3866;DHT22;1948;53.250;10.412;2022-10-13T05:03:55;8.40;99.90
3866;DHT22;1948;53.250;10.412;2022-10-13T05:06:26;8.40;99.90
3866;DHT22;1948;53.250;10.412;2022-10-13T05:08:58;8.40;99.90
3866;DHT22;1948;53.250;10.412;2022-10-13T05:11:30;8.40;99.90
3866;DHT22;1948;53.250;10.412;2022-10-13T05:13:58;8.30;99.90
3866;DHT22;1948;53.250;10.412;2022-10-13T05:16:25;8.40;99.90
3866;DHT22;1948;53.250;10.412;2022-10-13T05:18:56;8.50;99.90
3866;DHT22;1948;53.250;10.412;2022-10-13T05:21:27;8.50;99.90
3866;DHT22;1948;53.250;10.412;2022-10-13T05:23:57;8.50;99.90
3866;DHT22;1948;53.250;10.412;2022-10-13T05:26:27;8.60;99.90
3866;DHT22;1948;53.250;10.412;2022-10-13T05:28:56;8.60;99.90
3866;DHT22;1948;53.250;10.412;2022-10-13T05:31:25;8.50;99.90
3866;DHT22;1948;53.250;10.412;2022-10-13T05:33:53;8.50;99.90
3866;DHT22;1948;53.250;10.412;2022-10-13T05:36:33;8.50;99.90
3866;DHT22;1948;53.250;10.412;2022-10-13T05:39:05;8.50;99.90
3866;DHT22;1948;53.250;10.412;2022-10-13T05:41:33;8.60;99.90
3866;DHT22;1948;53.250;10.412;2022-10-13T05:44:06;8.60;99.90
3866;DHT22;1948;53.250;10.412;2022-10-13T05:46:33;8.60;99.90
3866;DHT22;1948;53.250;10.412;2022-10-13T05:49:03;8.60;99.90
3866;DHT22;1948;53.250;10.412;2022-10-13T05:51:40;8.70;99.90
3866;DHT22;1948;53.250;10.412;2022-10-13T05:54:59;8.70;99.90
3866;DHT22;1948;53.250;10.412;2022-10-13T05:57:16;8.80;99.90
3866;DHT22;1948;53.250;10.412;2022-10-13T05:59:52;8.80;99.90
3866;DHT22;1948;53.250;10.412;2022-10-13T06:02:29;8.80;99.90
3866;DHT22;1948;53.250;10.412;2022-10-13T06:05:03;8.70;99.90
3866;DHT22;1948;53.250;10.412;2022-10-13T06:07:34;8.80;99.90
3866;DHT22;1948;53.250;10.412;2022-10-13T06:10:01;8.80;99.90
3866;DHT22;1948;53.250;10.412;2022-10-13T06:12:28;8.90;99.90
3866;DHT22;1948;53.250;10.412;2022-10-13T06:14:57;8.90;99.90
3866;DHT22;1948;53.250;10.412;2022-10-13T06:17:26;9.00;99.90
3866;DHT22;1948;53.250;10.412;2022-10-13T06:19:53;9.20;99.90
3866;DHT22;1948;53.250;10.412;2022-10-13T06:22:25;9.30;99.90
3866;DHT22;1948;53.250;10.412;2022-10-13T06:24:54;9.40;99.90
3866;DHT22;1948;53.250;10.412;2022-10-13T06:27:24;9.50;99.90
3866;DHT22;1948;53.250;10.412;2022-10-13T06:29:51;9.70;99.90
3866;DHT22;1948;53.250;10.412;2022-10-13T06:32:17;9.70;99.90
3866;DHT22;1948;53.250;10.412;2022-10-13T06:34:49;9.70;99.90
3866;DHT22;1948;53.250;10.412;2022-10-13T06:37:19;9.70;99.90
3866;DHT22;1948;53.250;10.412;2022-10-13T06:39:52;9.70;99.90
3866;DHT22;1948;53.250;10.412;2022-10-13T06:42:19;9.60;99.90
3866;DHT22;1948;53.250;10.412;2022-10-13T06:44:47;9.50;99.90
3866;DHT22;1948;53.250;10.412;2022-10-13T06:47:16;9.50;99.90
3866;DHT22;1948;53.250;10.412;2022-10-13T06:49:45;9.50;99.90
3866;DHT22;1948;53.250;10.412;2022-10-13T06:52:17;9.60;99.90
3866;DHT22;1948;53.250;10.412;2022-10-13T06:54:45;9.60;99.90
3866;DHT22;1948;53.250;10.412;2022-10-13T06:57:14;9.60;99.90
3866;DHT22;1948;53.250;10.412;2022-10-13T06:59:47;9.80;99.90
3866;DHT22;1948;53.250;10.412;2022-10-13T07:02:19;9.80;99.90
3866;DHT22;1948;53.250;10.412;2022-10-13T07:04:48;9.90;99.90
3866;DHT22;1948;53.250;10.412;2022-10-13T07:07:18;9.90;99.90
3866;DHT22;1948;53.250;10.412;2022-10-13T07:09:47;10.00;99.90
3866;DHT22;1948;53.250;10.412;2022-10-13T07:12:15;10.10;99.90
3866;DHT22;1948;53.250;10.412;2022-10-13T07:14:42;10.20;99.90
3866;DHT22;1948;53.250;10.412;2022-10-13T07:17:12;10.30;99.90
3866;DHT22;1948;53.250;10.412;2022-10-13T07:19:43;10.30;99.90
3866;DHT22;1948;53.250;10.412;2022-10-13T07:22:13;10.40;99.90
3866;DHT22;1948;53.250;10.412;2022-10-13T07:24:43;10.30;99.90
3866;DHT22;1948;53.250;10.412;2022-10-13T07:27:10;10.10;99.90
3866;DHT22;1948;53.250;10.412;2022-10-13T07:29:37;10.10;99.90
3866;DHT22;1948;53.250;10.412;2022-10-13T07:32:04;10.10;99.90
3866;DHT22;1948;53.250;10.412;2022-10-13T07:37:01;10.20;99.90
3866;DHT22;1948;53.250;10.412;2022-10-13T07:39:28;10.40;99.90
3866;DHT22;1948;53.250;10.412;2022-10-13T07:41:57;10.50;99.90
3866;DHT22;1948;53.250;10.412;2022-10-13T07:44:26;10.70;99.90
3866;DHT22;1948;53.250;10.412;2022-10-13T07:46:53;10.70;99.90
3866;DHT22;1948;53.250;10.412;2022-10-13T07:49:20;10.80;99.90
3866;DHT22;1948;53.250;10.412;2022-10-13T07:51:48;10.70;99.90
3866;DHT22;1948;53.250;10.412;2022-10-13T07:54:15;10.80;99.90
3866;DHT22;1948;53.250;10.412;2022-10-13T07:56:53;10.90;99.90
3866;DHT22;1948;53.250;10.412;2022-10-13T07:59:21;10.90;99.90
3866;DHT22;1948;53.250;10.412;2022-10-13T08:01:48;10.90;99.90
3866;DHT22;1948;53.250;10.412;2022-10-13T08:04:15;11.00;99.90
3866;DHT22;1948;53.250;10.412;2022-10-13T08:06:42;11.10;99.90
3866;DHT22;1948;53.250;10.412;2022-10-13T08:09:09;11.20;99.90
3866;DHT22;1948;53.250;10.412;2022-10-13T08:11:44;11.40;99.90
3866;DHT22;1948;53.250;10.412;2022-10-13T08:14:12;11.50;99.90
3866;DHT22;1948;53.250;10.412;2022-10-13T08:16:41;11.60;99.90
3866;DHT22;1948;53.250;10.412;2022-10-13T08:19:20;11.70;99.90
3866;DHT22;1948;53.250;10.412;2022-10-13T08:21:50;11.90;99.90
3866;DHT22;1948;53.250;10.412;2022-10-13T08:24:24;12.10;99.90
3866;DHT22;1948;53.250;10.412;2022-10-13T08:26:51;12.10;99.90
3866;DHT22;1948;53.250;10.412;2022-10-13T08:29:17;12.10;99.90
3866;DHT22;1948;53.250;10.412;2022-10-13T08:31:53;12.30;99.90
3866;DHT22;1948;53.250;10.412;2022-10-13T08:34:25;12.40;99.90
3866;DHT22;1948;53.250;10.412;2022-10-13T08:36:54;12.60;99.90
3866;DHT22;1948;53.250;10.412;2022-10-13T08:39:23;12.80;99.90
3866;DHT22;1948;53.250;10.412;2022-10-13T08:41:50;12.90;99.90
3866;DHT22;1948;53.250;10.412;2022-10-13T08:44:40;13.10;99.90
3866;DHT22;1948;53.250;10.412;2022-10-13T08:50:05;13.30;99.90
3866;DHT22;1948;53.250;10.412;2022-10-13T08:52:46;13.40;99.90
3866;DHT22;1948;53.250;10.412;2022-10-13T08:58:05;13.70;99.90
3866;DHT22;1948;53.250;10.412;2022-10-13T09:00:40;13.90;99.90
3866;DHT22;1948;53.250;10.412;2022-10-13T09:03:23;14.20;99.90
3866;DHT22;1948;53.250;10.412;2022-10-13T09:08:55;14.80;99.90
3866;DHT22;1948;53.250;10.412;2022-10-13T09:11:24;14.80;99.90
3866;DHT22;1948;53.250;10.412;2022-10-13T09:13:57;14.90;99.90
3866;DHT22;1948;53.250;10.412;2022-10-13T09:16:37;15.10;99.90
3866;DHT22;1948;53.250;10.412;2022-10-13T09:21:43;14.90;99.90
3866;DHT22;1948;53.250;10.412;2022-10-13T09:24:18;14.70;99.90
3866;DHT22;1948;53.250;10.412;2022-10-13T09:26:49;14.80;99.90
3866;DHT22;1948;53.250;10.412;2022-10-13T09:29:28;15.10;99.90
3866;DHT22;1948;53.250;10.412;2022-10-13T09:34:48;15.40;99.90
3866;DHT22;1948;53.250;10.412;2022-10-13T09:37:18;15.10;99.90
3866;DHT22;1948;53.250;10.412;2022-10-13T09:40:00;15.00;99.90
3866;DHT22;1948;53.250;10.412;2022-10-13T09:42:29;15.20;99.90
3866;DHT22;1948;53.250;10.412;2022-10-13T09:45:15;15.40;99.90
3866;DHT22;1948;53.250;10.412;2022-10-13T09:47:54;15.50;99.90
3866;DHT22;1948;53.250;10.412;2022-10-13T09:50:33;15.70;99.90
3866;DHT22;1948;53.250;10.412;2022-10-13T09:53:22;16.20;99.90
3866;DHT22;1948;53.250;10.412;2022-10-13T09:56:20;16.80;99.90
3866;DHT22;1948;53.250;10.412;2022-10-13T10:02:03;17.70;99.90
3866;DHT22;1948;53.250;10.412;2022-10-13T10:04:50;18.40;99.90
3866;DHT22;1948;53.250;10.412;2022-10-13T10:07:28;18.80;99.90
3866;DHT22;1948;53.250;10.412;2022-10-13T10:10:03;19.60;99.90
3866;DHT22;1948;53.250;10.412;2022-10-13T10:12:34;20.60;99.90
3866;DHT22;1948;53.250;10.412;2022-10-13T10:15:15;21.50;99.90
3866;DHT22;1948;53.250;10.412;2022-10-13T10:17:54;21.90;99.90
3866;DHT22;1948;53.250;10.412;2022-10-13T10:20:50;21.60;99.90
3866;DHT22;1948;53.250;10.412;2022-10-13T10:26:27;20.90;99.90
3866;DHT22;1948;53.250;10.412;2022-10-13T10:35:15;21.00;99.90
3866;DHT22;1948;53.250;10.412;2022-10-13T10:38:10;21.00;99.90
3866;DHT22;1948;53.250;10.412;2022-10-13T10:43:55;20.00;99.90
3866;DHT22;1948;53.250;10.412;2022-10-13T10:46:33;19.70;99.90
3866;DHT22;1948;53.250;10.412;2022-10-13T10:49:35;19.40;99.90
3866;DHT22;1948;53.250;10.412;2022-10-13T10:52:08;18.60;99.90
3866;DHT22;1948;53.250;10.412;2022-10-13T10:57:25;18.60;99.90
3866;DHT22;1948;53.250;10.412;2022-10-13T11:00:00;19.10;99.90
3866;DHT22;1948;53.250;10.412;2022-10-13T11:05:06;20.60;99.90
3866;DHT22;1948;53.250;10.412;2022-10-13T11:10:16;23.90;99.90
3866;DHT22;1948;53.250;10.412;2022-10-13T11:15:39;23.60;99.90
3866;DHT22;1948;53.250;10.412;2022-10-13T11:21:20;26.70;99.90
3866;DHT22;1948;53.250;10.412;2022-10-13T11:23:50;27.70;99.90
3866;DHT22;1948;53.250;10.412;2022-10-13T11:26:26;28.20;99.90
3866;DHT22;1948;53.250;10.412;2022-10-13T11:28:58;27.40;99.90
3866;DHT22;1948;53.250;10.412;2022-10-13T11:31:49;26.50;99.90
3866;DHT22;1948;53.250;10.412;2022-10-13T11:34:29;25.40;99.90
3866;DHT22;1948;53.250;10.412;2022-10-13T11:37:00;24.60;99.90
3866;DHT22;1948;53.250;10.412;2022-10-13T11:39:43;23.60;99.90
3866;DHT22;1948;53.250;10.412;2022-10-13T11:42:44;22.40;99.90
3866;DHT22;1948;53.250;10.412;2022-10-13T11:45:42;21.50;99.90
3866;DHT22;1948;53.250;10.412;2022-10-13T11:56:57;22.50;99.90
3866;DHT22;1948;53.250;10.412;2022-10-13T11:59:30;22.40;99.90
3866;DHT22;1948;53.250;10.412;2022-10-13T12:04:39;21.20;99.90
3866;DHT22;1948;53.250;10.412;2022-10-13T12:07:14;21.30;99.90
3866;DHT22;1948;53.250;10.412;2022-10-13T12:12:16;22.20;99.90
3866;DHT22;1948;53.250;10.412;2022-10-13T12:14:53;21.90;99.90
3866;DHT22;1948;53.250;10.412;2022-10-13T12:20:26;20.80;99.90
3866;DHT22;1948;53.250;10.412;2022-10-13T12:22:58;20.30;99.90
3866;DHT22;1948;53.250;10.412;2022-10-13T12:25:29;20.90;99.90
3866;DHT22;1948;53.250;10.412;2022-10-13T12:28:02;21.30;99.90
3866;DHT22;1948;53.250;10.412;2022-10-13T12:30:33;21.80;99.90
3866;DHT22;1948;53.250;10.412;2022-10-13T12:33:13;22.70;99.90
3866;DHT22;1948;53.250;10.412;2022-10-13T12:35:47;23.40;99.90
3866;DHT22;1948;53.250;10.412;2022-10-13T12:38:19;24.60;99.90
3866;DHT22;1948;53.250;10.412;2022-10-13T12:40:48;25.40;99.90
3866;DHT22;1948;53.250;10.412;2022-10-13T12:43:22;26.40;99.90
3866;DHT22;1948;53.250;10.412;2022-10-13T12:45:53;27.00;99.90
3866;DHT22;1948;53.250;10.412;2022-10-13T12:48:34;26.40;99.90
3866;DHT22;1948;53.250;10.412;2022-10-13T12:51:18;26.40;99.90
3866;DHT22;1948;53.250;10.412;2022-10-13T12:53:47;25.30;99.90
3866;DHT22;1948;53.250;10.412;2022-10-13T12:56:24;24.00;99.90
3866;DHT22;1948;53.250;10.412;2022-10-13T12:58:58;23.70;99.90
3866;DHT22;1948;53.250;10.412;2022-10-13T13:01:36;25.20;99.90
3866;DHT22;1948;53.250;10.412;2022-10-13T13:07:24;26.40;99.90
3866;DHT22;1948;53.250;10.412;2022-10-13T13:10:20;25.60;99.90
3866;DHT22;1948;53.250;10.412;2022-10-13T13:12:49;23.90;99.90
3866;DHT22;1948;53.250;10.412;2022-10-13T13:15:37;22.90;99.90
3866;DHT22;1948;53.250;10.412;2022-10-13T13:20:50;21.70;99.90
3866;DHT22;1948;53.250;10.412;2022-10-13T13:23:17;21.40;99.90
3866;DHT22;1948;53.250;10.412;2022-10-13T13:25:45;21.00;99.90
3866;DHT22;1948;53.250;10.412;2022-10-13T13:28:15;20.70;99.90
3866;DHT22;1948;53.250;10.412;2022-10-13T13:30:43;20.40;99.90
3866;DHT22;1948;53.250;10.412;2022-10-13T13:33:10;20.30;99.90
3866;DHT22;1948;53.250;10.412;2022-10-13T13:35:40;20.20;99.90
3866;DHT22;1948;53.250;10.412;2022-10-13T13:38:08;19.90;99.90
3866;DHT22;1948;53.250;10.412;2022-10-13T13:40:40;19.80;99.90
3866;DHT22;1948;53.250;10.412;2022-10-13T13:43:07;19.80;99.90
3866;DHT22;1948;53.250;10.412;2022-10-13T13:45:34;19.70;99.90
3866;DHT22;1948;53.250;10.412;2022-10-13T13:48:02;19.40;99.90
3866;DHT22;1948;53.250;10.412;2022-10-13T13:50:34;19.30;99.90
3866;DHT22;1948;53.250;10.412;2022-10-13T13:53:03;19.10;99.90
3866;DHT22;1948;53.250;10.412;2022-10-13T13:55:30;19.10;99.90
3866;DHT22;1948;53.250;10.412;2022-10-13T13:57:57;19.00;99.90
3866;DHT22;1948;53.250;10.412;2022-10-13T14:00:27;19.00;99.90
3866;DHT22;1948;53.250;10.412;2022-10-13T14:02:55;18.90;99.90
3866;DHT22;1948;53.250;10.412;2022-10-13T14:05:22;18.70;99.90
3866;DHT22;1948;53.250;10.412;2022-10-13T14:07:53;18.70;99.90
3866;DHT22;1948;53.250;10.412;2022-10-13T14:10:26;18.60;99.90
3866;DHT22;1948;53.250;10.412;2022-10-13T14:12:54;18.60;99.90
3866;DHT22;1948;53.250;10.412;2022-10-13T14:15:21;18.50;99.90
3866;DHT22;1948;53.250;10.412;2022-10-13T14:17:59;18.30;99.90
3866;DHT22;1948;53.250;10.412;2022-10-13T14:20:26;18.30;99.90
3866;DHT22;1948;53.250;10.412;2022-10-13T14:22:53;18.20;99.90
3866;DHT22;1948;53.250;10.412;2022-10-13T14:25:22;18.20;99.90
3866;DHT22;1948;53.250;10.412;2022-10-13T14:27:50;18.20;99.90
3866;DHT22;1948;53.250;10.412;2022-10-13T14:30:17;18.20;99.90
3866;DHT22;1948;53.250;10.412;2022-10-13T14:32:46;18.20;99.90
3866;DHT22;1948;53.250;10.412;2022-10-13T14:35:16;18.20;99.90
3866;DHT22;1948;53.250;10.412;2022-10-13T14:37:45;18.10;99.90
3866;DHT22;1948;53.250;10.412;2022-10-13T14:40:16;18.00;99.90
3866;DHT22;1948;53.250;10.412;2022-10-13T14:42:43;18.10;99.90
3866;DHT22;1948;53.250;10.412;2022-10-13T14:45:12;18.20;99.90
3866;DHT22;1948;53.250;10.412;2022-10-13T14:47:43;18.30;99.90
3866;DHT22;1948;53.250;10.412;2022-10-13T14:50:10;18.40;99.90
3866;DHT22;1948;53.250;10.412;2022-10-13T14:52:37;18.50;99.90
3866;DHT22;1948;53.250;10.412;2022-10-13T14:55:05;18.50;99.90
3866;DHT22;1948;53.250;10.412;2022-10-13T14:57:32;18.50;99.90
3866;DHT22;1948;53.250;10.412;2022-10-13T15:00:01;18.60;99.90
3866;DHT22;1948;53.250;10.412;2022-10-13T15:02:28;18.70;99.90
3866;DHT22;1948;53.250;10.412;2022-10-13T15:04:55;18.80;99.90
3866;DHT22;1948;53.250;10.412;2022-10-13T15:07:24;19.00;99.90
3866;DHT22;1948;53.250;10.412;2022-10-13T15:09:51;19.10;99.90
3866;DHT22;1948;53.250;10.412;2022-10-13T15:12:30;18.90;99.90
3866;DHT22;1948;53.250;10.412;2022-10-13T15:15:00;18.90;99.90
3866;DHT22;1948;53.250;10.412;2022-10-13T15:17:38;18.50;99.90
3866;DHT22;1948;53.250;10.412;2022-10-13T15:20:05;18.40;99.90
3866;DHT22;1948;53.250;10.412;2022-10-13T15:22:33;18.20;99.90
3866;DHT22;1948;53.250;10.412;2022-10-13T15:25:02;18.00;99.90
3866;DHT22;1948;53.250;10.412;2022-10-13T15:27:36;18.00;99.90
3866;DHT22;1948;53.250;10.412;2022-10-13T15:30:09;17.90;99.90
3866;DHT22;1948;53.250;10.412;2022-10-13T15:32:39;17.90;99.90
3866;DHT22;1948;53.250;10.412;2022-10-13T15:35:06;17.80;99.90
3866;DHT22;1948;53.250;10.412;2022-10-13T15:37:36;17.80;99.90
3866;DHT22;1948;53.250;10.412;2022-10-13T15:40:05;17.60;99.90
3866;DHT22;1948;53.250;10.412;2022-10-13T15:42:33;17.50;99.90
3866;DHT22;1948;53.250;10.412;2022-10-13T15:45:02;17.60;99.90
3866;DHT22;1948;53.250;10.412;2022-10-13T15:47:36;17.40;99.90
3866;DHT22;1948;53.250;10.412;2022-10-13T15:50:04;17.50;99.90
3866;DHT22;1948;53.250;10.412;2022-10-13T15:52:31;17.30;99.90
3866;DHT22;1948;53.250;10.412;2022-10-13T15:55:08;17.30;99.90
3866;DHT22;1948;53.250;10.412;2022-10-13T15:57:36;17.30;99.90
3866;DHT22;1948;53.250;10.412;2022-10-13T16:00:07;17.40;99.90
3866;DHT22;1948;53.250;10.412;2022-10-13T16:02:39;17.30;99.90
3866;DHT22;1948;53.250;10.412;2022-10-13T16:05:10;17.30;99.90
3866;DHT22;1948;53.250;10.412;2022-10-13T16:07:38;17.30;99.90
3866;DHT22;1948;53.250;10.412;2022-10-13T16:10:09;17.30;99.90
3866;DHT22;1948;53.250;10.412;2022-10-13T16:12:41;17.40;99.90
3866;DHT22;1948;53.250;10.412;2022-10-13T16:15:16;17.30;99.90
3866;DHT22;1948;53.250;10.412;2022-10-13T16:17:46;17.20;99.90
3866;DHT22;1948;53.250;10.412;2022-10-13T16:20:16;17.20;99.90
3866;DHT22;1948;53.250;10.412;2022-10-13T16:22:43;17.10;99.90
3866;DHT22;1948;53.250;10.412;2022-10-13T16:25:12;17.10;99.90
3866;DHT22;1948;53.250;10.412;2022-10-13T16:27:39;17.00;99.90
3866;DHT22;1948;53.250;10.412;2022-10-13T16:30:10;16.90;99.90
3866;DHT22;1948;53.250;10.412;2022-10-13T16:32:38;16.90;99.90
3866;DHT22;1948;53.250;10.412;2022-10-13T16:35:06;16.90;99.90
3866;DHT22;1948;53.250;10.412;2022-10-13T16:37:33;16.90;99.90
3866;DHT22;1948;53.250;10.412;2022-10-13T16:40:00;16.90;99.90
3866;DHT22;1948;53.250;10.412;2022-10-13T16:42:27;17.00;99.90
3866;DHT22;1948;53.250;10.412;2022-10-13T16:44:54;16.90;99.90
3866;DHT22;1948;53.250;10.412;2022-10-13T16:47:21;16.90;99.90
3866;DHT22;1948;53.250;10.412;2022-10-13T16:49:48;16.90;99.90
3866;DHT22;1948;53.250;10.412;2022-10-13T16:52:17;16.80;99.90
3866;DHT22;1948;53.250;10.412;2022-10-13T16:54:45;16.80;99.90
3866;DHT22;1948;53.250;10.412;2022-10-13T16:57:12;16.80;99.90
3866;DHT22;1948;53.250;10.412;2022-10-13T16:59:39;16.80;99.90
3866;DHT22;1948;53.250;10.412;2022-10-13T17:02:14;16.80;99.90
3866;DHT22;1948;53.250;10.412;2022-10-13T17:04:41;16.70;99.90
3866;DHT22;1948;53.250;10.412;2022-10-13T17:07:08;16.70;99.90
3866;DHT22;1948;53.250;10.412;2022-10-13T17:09:35;16.70;99.90
3866;DHT22;1948;53.250;10.412;2022-10-13T17:12:05;16.60;99.90
3866;DHT22;1948;53.250;10.412;2022-10-13T17:14:34;16.60;99.90
3866;DHT22;1948;53.250;10.412;2022-10-13T17:17:04;16.60;99.90
3866;DHT22;1948;53.250;10.412;2022-10-13T17:19:35;16.50;99.90
3866;DHT22;1948;53.250;10.412;2022-10-13T17:22:05;16.40;99.90
3866;DHT22;1948;53.250;10.412;2022-10-13T17:24:34;16.50;99.90
3866;DHT22;1948;53.250;10.412;2022-10-13T17:27:06;16.30;99.90
3866;DHT22;1948;53.250;10.412;2022-10-13T17:29:35;16.30;99.90
3866;DHT22;1948;53.250;10.412;2022-10-13T17:32:04;16.20;99.90
3866;DHT22;1948;53.250;10.412;2022-10-13T17:34:31;16.10;99.90
3866;DHT22;1948;53.250;10.412;2022-10-13T17:37:02;16.10;99.90
3866;DHT22;1948;53.250;10.412;2022-10-13T17:39:30;16.10;99.90
3866;DHT22;1948;53.250;10.412;2022-10-13T17:41:57;16.00;99.90
3866;DHT22;1948;53.250;10.412;2022-10-13T17:44:24;15.90;99.90
3866;DHT22;1948;53.250;10.412;2022-10-13T17:46:52;15.80;99.90
3866;DHT22;1948;53.250;10.412;2022-10-13T17:49:19;15.80;99.90
3866;DHT22;1948;53.250;10.412;2022-10-13T17:51:50;15.80;99.90
3866;DHT22;1948;53.250;10.412;2022-10-13T17:54:20;15.80;99.90